sensor_id;sensor_type;location;lat;lon;timestamp;temperature;humidity
75262;DHT22;63859;51.064;4.580;2023-08-07T00:00:05;12.60;99.90
75262;DHT22;63859;51.064;4.580;2023-08-07T00:02:34;12.50;99.90
75262;DHT22;63859;51.064;4.580;2023-08-07T00:05:00;12.50;99.90
75262;DHT22;63859;51.064;4.580;2023-08-07T00:07:26;12.50;99.90
75262;DHT22;63859;51.064;4.580;2023-08-07T00:09:51;12.50;99.90
75262;DHT22;63859;51.064;4.580;2023-08-07T00:12:17;12.50;99.90
75262;DHT22;63859;51.064;4.580;2023-08-07T00:14:42;12.50;99.90
75262;DHT22;63859;51.064;4.580;2023-08-07T00:17:08;12.40;99.90
75262;DHT22;63859;51.064;4.580;2023-08-07T00:19:34;12.40;99.90
75262;DHT22;63859;51.064;4.580;2023-08-07T00:22:00;12.40;99.90
75262;DHT22;63859;51.064;4.580;2023-08-07T00:24:25;12.40;99.90
75262;DHT22;63859;51.064;4.580;2023-08-07T00:26:51;12.40;99.90
75262;DHT22;63859;51.064;4.580;2023-08-07T00:29:17;12.40;99.90
75262;DHT22;63859;51.064;4.580;2023-08-07T00:31:42;12.30;99.90
75262;DHT22;63859;51.064;4.580;2023-08-07T00:34:08;12.30;99.90
75262;DHT22;63859;51.064;4.580;2023-08-07T00:36:35;12.30;99.90
75262;DHT22;63859;51.064;4.580;2023-08-07T00:39:01;12.30;99.90
75262;DHT22;63859;51.064;4.580;2023-08-07T00:41:29;12.20;99.90
75262;DHT22;63859;51.064;4.580;2023-08-07T00:43:55;12.20;99.90
75262;DHT22;63859;51.064;4.580;2023-08-07T00:46:20;12.20;99.90
75262;DHT22;63859;51.064;4.580;2023-08-07T00:48:46;12.20;99.90
75262;DHT22;63859;51.064;4.580;2023-08-07T00:51:12;12.20;99.90
75262;DHT22;63859;51.064;4.580;2023-08-07T00:53:38;12.20;99.90
75262;DHT22;63859;51.064;4.580;2023-08-07T00:56:05;12.30;99.90
75262;DHT22;63859;51.064;4.580;2023-08-07T00:58:32;12.20;99.90
75262;DHT22;63859;51.064;4.580;2023-08-07T01:00:58;12.20;99.90
75262;DHT22;63859;51.064;4.580;2023-08-07T01:03:24;12.20;99.90
75262;DHT22;63859;51.064;4.580;2023-08-07T01:05:50;12.20;99.90
75262;DHT22;63859;51.064;4.580;2023-08-07T01:08:16;12.20;99.90
75262;DHT22;63859;51.064;4.580;2023-08-07T01:13:40;12.20;99.90
75262;DHT22;63859;51.064;4.580;2023-08-07T01:16:16;12.20;99.90
75262;DHT22;63859;51.064;4.580;2023-08-07T01:18:45;12.20;99.90
75262;DHT22;63859;51.064;4.580;2023-08-07T01:21:18;12.10;99.90
75262;DHT22;63859;51.064;4.580;2023-08-07T01:23:46;12.10;99.90
75262;DHT22;63859;51.064;4.580;2023-08-07T01:26:13;12.10;99.90
75262;DHT22;63859;51.064;4.580;2023-08-07T01:28:44;12.10;99.90
75262;DHT22;63859;51.064;4.580;2023-08-07T01:31:14;12.10;99.90
75262;DHT22;63859;51.064;4.580;2023-08-07T01:33:57;12.10;99.90
75262;DHT22;63859;51.064;4.580;2023-08-07T01:36:27;12.10;99.90
75262;DHT22;63859;51.064;4.580;2023-08-07T01:38:56;12.00;99.90
75262;DHT22;63859;51.064;4.580;2023-08-07T01:41:23;12.00;99.90
75262;DHT22;63859;51.064;4.580;2023-08-07T01:43:49;12.00;99.90
75262;DHT22;63859;51.064;4.580;2023-08-07T01:46:16;12.00;99.90
75262;DHT22;63859;51.064;4.580;2023-08-07T01:48:41;12.00;99.90
75262;DHT22;63859;51.064;4.580;2023-08-07T01:51:07;12.00;99.90
75262;DHT22;63859;51.064;4.580;2023-08-07T01:53:33;12.00;99.90
75262;DHT22;63859;51.064;4.580;2023-08-07T01:55:58;12.00;99.90
75262;DHT22;63859;51.064;4.580;2023-08-07T01:58:24;12.00;99.90
75262;DHT22;63859;51.064;4.580;2023-08-07T02:00:49;12.00;99.90
75262;DHT22;63859;51.064;4.580;2023-08-07T02:03:15;12.00;99.90
75262;DHT22;63859;51.064;4.580;2023-08-07T02:05:41;12.10;99.90
75262;DHT22;63859;51.064;4.580;2023-08-07T02:08:06;12.00;99.90
75262;DHT22;63859;51.064;4.580;2023-08-07T02:10:32;12.00;99.90
75262;DHT22;63859;51.064;4.580;2023-08-07T02:12:58;12.00;99.90
75262;DHT22;63859;51.064;4.580;2023-08-07T02:15:26;12.00;99.90
75262;DHT22;63859;51.064;4.580;2023-08-07T02:17:52;12.00;99.90
75262;DHT22;63859;51.064;4.580;2023-08-07T02:20:18;11.90;99.90
75262;DHT22;63859;51.064;4.580;2023-08-07T02:22:43;11.90;99.90
75262;DHT22;63859;51.064;4.580;2023-08-07T02:25:09;11.90;99.90
75262;DHT22;63859;51.064;4.580;2023-08-07T02:27:35;11.90;99.90
75262;DHT22;63859;51.064;4.580;2023-08-07T02:30:00;11.90;99.90
75262;DHT22;63859;51.064;4.580;2023-08-07T02:32:28;11.80;99.90
75262;DHT22;63859;51.064;4.580;2023-08-07T02:34:54;11.90;99.90
75262;DHT22;63859;51.064;4.580;2023-08-07T02:37:19;11.80;99.90
75262;DHT22;63859;51.064;4.580;2023-08-07T02:39:46;11.80;99.90
75262;DHT22;63859;51.064;4.580;2023-08-07T02:42:11;11.80;99.90
75262;DHT22;63859;51.064;4.580;2023-08-07T02:44:37;11.80;99.90
75262;DHT22;63859;51.064;4.580;2023-08-07T02:47:03;11.70;99.90
75262;DHT22;63859;51.064;4.580;2023-08-07T02:49:29;11.70;99.90
75262;DHT22;63859;51.064;4.580;2023-08-07T02:51:55;11.70;99.90
75262;DHT22;63859;51.064;4.580;2023-08-07T02:54:20;11.70;99.90
75262;DHT22;63859;51.064;4.580;2023-08-07T02:56:46;11.60;99.90
75262;DHT22;63859;51.064;4.580;2023-08-07T02:59:14;11.60;99.90
75262;DHT22;63859;51.064;4.580;2023-08-07T03:01:39;11.60;99.90
75262;DHT22;63859;51.064;4.580;2023-08-07T03:04:05;11.60;99.90
75262;DHT22;63859;51.064;4.580;2023-08-07T03:06:31;11.60;99.90
75262;DHT22;63859;51.064;4.580;2023-08-07T03:08:56;11.60;99.90
75262;DHT22;63859;51.064;4.580;2023-08-07T03:11:22;11.60;99.90
75262;DHT22;63859;51.064;4.580;2023-08-07T03:13:48;11.60;99.90
75262;DHT22;63859;51.064;4.580;2023-08-07T03:16:15;11.60;99.90
75262;DHT22;63859;51.064;4.580;2023-08-07T03:18:40;11.60;99.90
75262;DHT22;63859;51.064;4.580;2023-08-07T03:21:06;11.60;99.90
75262;DHT22;63859;51.064;4.580;2023-08-07T03:23:32;11.60;99.90
75262;DHT22;63859;51.064;4.580;2023-08-07T03:26:11;11.60;99.90
75262;DHT22;63859;51.064;4.580;2023-08-07T03:28:37;11.60;99.90
75262;DHT22;63859;51.064;4.580;2023-08-07T03:31:03;11.70;99.90
75262;DHT22;63859;51.064;4.580;2023-08-07T03:33:29;11.70;99.90
75262;DHT22;63859;51.064;4.580;2023-08-07T03:35:55;11.70;99.90
75262;DHT22;63859;51.064;4.580;2023-08-07T03:38:21;11.80;99.90
75262;DHT22;63859;51.064;4.580;2023-08-07T03:40:46;11.80;99.90
75262;DHT22;63859;51.064;4.580;2023-08-07T03:43:12;11.80;99.90
75262;DHT22;63859;51.064;4.580;2023-08-07T03:45:39;11.90;99.90
75262;DHT22;63859;51.064;4.580;2023-08-07T03:48:05;11.90;99.90
75262;DHT22;63859;51.064;4.580;2023-08-07T03:50:30;11.90;99.90
75262;DHT22;63859;51.064;4.580;2023-08-07T03:52:59;11.90;99.90
75262;DHT22;63859;51.064;4.580;2023-08-07T03:55:25;12.00;99.90
75262;DHT22;63859;51.064;4.580;2023-08-07T03:57:51;12.00;99.90
75262;DHT22;63859;51.064;4.580;2023-08-07T04:00:16;12.00;99.90
75262;DHT22;63859;51.064;4.580;2023-08-07T04:02:42;12.00;99.90
75262;DHT22;63859;51.064;4.580;2023-08-07T04:05:08;12.00;99.90
75262;DHT22;63859;51.064;4.580;2023-08-07T04:07:34;12.10;99.90
75262;DHT22;63859;51.064;4.580;2023-08-07T04:09:59;12.10;99.90
75262;DHT22;63859;51.064;4.580;2023-08-07T04:12:25;12.10;99.90
75262;DHT22;63859;51.064;4.580;2023-08-07T04:14:51;12.00;99.90
75262;DHT22;63859;51.064;4.580;2023-08-07T04:17:17;12.00;99.90
75262;DHT22;63859;51.064;4.580;2023-08-07T04:19:42;12.00;99.90
75262;DHT22;63859;51.064;4.580;2023-08-07T04:22:08;12.00;99.90
75262;DHT22;63859;51.064;4.580;2023-08-07T04:24:34;12.00;99.90
75262;DHT22;63859;51.064;4.580;2023-08-07T04:26:59;12.00;99.90
75262;DHT22;63859;51.064;4.580;2023-08-07T04:29:25;12.00;99.90
75262;DHT22;63859;51.064;4.580;2023-08-07T04:31:51;12.00;99.90
75262;DHT22;63859;51.064;4.580;2023-08-07T04:34:16;12.00;99.90
75262;DHT22;63859;51.064;4.580;2023-08-07T04:36:42;12.00;99.90
75262;DHT22;63859;51.064;4.580;2023-08-07T04:39:08;12.00;99.90
75262;DHT22;63859;51.064;4.580;2023-08-07T04:41:34;12.00;99.90
75262;DHT22;63859;51.064;4.580;2023-08-07T04:43:59;12.10;99.90
75262;DHT22;63859;51.064;4.580;2023-08-07T04:46:25;12.10;99.90
75262;DHT22;63859;51.064;4.580;2023-08-07T04:48:51;12.10;99.90
75262;DHT22;63859;51.064;4.580;2023-08-07T04:51:16;12.00;99.90
75262;DHT22;63859;51.064;4.580;2023-08-07T04:53:42;12.00;99.90
75262;DHT22;63859;51.064;4.580;2023-08-07T04:56:07;12.00;99.90
75262;DHT22;63859;51.064;4.580;2023-08-07T04:58:33;12.00;99.90
75262;DHT22;63859;51.064;4.580;2023-08-07T05:00:59;12.00;99.90
75262;DHT22;63859;51.064;4.580;2023-08-07T05:03:25;12.00;99.90
75262;DHT22;63859;51.064;4.580;2023-08-07T05:05:58;12.00;99.90
75262;DHT22;63859;51.064;4.580;2023-08-07T05:08:24;11.90;99.90
75262;DHT22;63859;51.064;4.580;2023-08-07T05:10:49;11.90;99.90
75262;DHT22;63859;51.064;4.580;2023-08-07T05:13:15;11.90;99.90
75262;DHT22;63859;51.064;4.580;2023-08-07T05:15:41;11.90;99.90
75262;DHT22;63859;51.064;4.580;2023-08-07T05:18:06;11.90;99.90
75262;DHT22;63859;51.064;4.580;2023-08-07T05:20:32;11.90;99.90
75262;DHT22;63859;51.064;4.580;2023-08-07T05:22:58;11.90;99.90
75262;DHT22;63859;51.064;4.580;2023-08-07T05:25:23;11.90;99.90
75262;DHT22;63859;51.064;4.580;2023-08-07T05:27:49;11.90;99.90
75262;DHT22;63859;51.064;4.580;2023-08-07T05:30:15;12.00;99.90
75262;DHT22;63859;51.064;4.580;2023-08-07T05:32:41;12.00;99.90
75262;DHT22;63859;51.064;4.580;2023-08-07T05:35:07;12.00;99.90
75262;DHT22;63859;51.064;4.580;2023-08-07T05:37:34;12.00;99.90
75262;DHT22;63859;51.064;4.580;2023-08-07T05:40:00;12.10;99.90
75262;DHT22;63859;51.064;4.580;2023-08-07T05:42:25;12.10;99.90
75262;DHT22;63859;51.064;4.580;2023-08-07T05:44:51;12.20;99.90
75262;DHT22;63859;51.064;4.580;2023-08-07T05:47:17;12.20;99.90
75262;DHT22;63859;51.064;4.580;2023-08-07T05:49:42;12.20;99.90
75262;DHT22;63859;51.064;4.580;2023-08-07T05:52:08;12.30;99.90
75262;DHT22;63859;51.064;4.580;2023-08-07T05:54:34;12.30;99.90
75262;DHT22;63859;51.064;4.580;2023-08-07T05:57:00;12.40;99.90
75262;DHT22;63859;51.064;4.580;2023-08-07T05:59:25;12.50;99.90
75262;DHT22;63859;51.064;4.580;2023-08-07T06:01:52;12.50;99.90
75262;DHT22;63859;51.064;4.580;2023-08-07T06:04:18;12.60;99.90
75262;DHT22;63859;51.064;4.580;2023-08-07T06:06:44;12.70;99.90
75262;DHT22;63859;51.064;4.580;2023-08-07T06:09:11;12.80;99.90
75262;DHT22;63859;51.064;4.580;2023-08-07T06:11:37;12.90;99.90
75262;DHT22;63859;51.064;4.580;2023-08-07T06:14:02;13.00;99.90
75262;DHT22;63859;51.064;4.580;2023-08-07T06:16:28;13.00;99.90
75262;DHT22;63859;51.064;4.580;2023-08-07T06:18:54;13.10;99.90
75262;DHT22;63859;51.064;4.580;2023-08-07T06:21:19;13.20;99.90
75262;DHT22;63859;51.064;4.580;2023-08-07T06:23:46;13.30;99.90
75262;DHT22;63859;51.064;4.580;2023-08-07T06:26:12;13.30;99.90
75262;DHT22;63859;51.064;4.580;2023-08-07T06:28:38;13.40;99.90
75262;DHT22;63859;51.064;4.580;2023-08-07T06:31:05;13.40;99.90
75262;DHT22;63859;51.064;4.580;2023-08-07T06:33:31;13.50;99.90
75262;DHT22;63859;51.064;4.580;2023-08-07T06:35:58;13.60;99.90
75262;DHT22;63859;51.064;4.580;2023-08-07T06:38:24;13.60;99.90
75262;DHT22;63859;51.064;4.580;2023-08-07T06:40:50;13.70;99.90
75262;DHT22;63859;51.064;4.580;2023-08-07T06:43:16;13.70;99.90
75262;DHT22;63859;51.064;4.580;2023-08-07T06:45:41;13.80;99.90
75262;DHT22;63859;51.064;4.580;2023-08-07T06:48:07;13.90;99.90
75262;DHT22;63859;51.064;4.580;2023-08-07T06:50:33;14.00;99.90
75262;DHT22;63859;51.064;4.580;2023-08-07T06:52:58;14.00;99.90
75262;DHT22;63859;51.064;4.580;2023-08-07T06:55:25;14.10;99.90
75262;DHT22;63859;51.064;4.580;2023-08-07T06:57:51;14.20;99.90
75262;DHT22;63859;51.064;4.580;2023-08-07T07:00:16;14.20;99.90
75262;DHT22;63859;51.064;4.580;2023-08-07T07:02:42;14.30;99.90
75262;DHT22;63859;51.064;4.580;2023-08-07T07:05:08;14.40;99.90
75262;DHT22;63859;51.064;4.580;2023-08-07T07:07:34;14.40;99.90
75262;DHT22;63859;51.064;4.580;2023-08-07T07:09:59;14.50;99.90
75262;DHT22;63859;51.064;4.580;2023-08-07T07:12:27;14.60;99.90
75262;DHT22;63859;51.064;4.580;2023-08-07T07:14:52;14.60;99.90
75262;DHT22;63859;51.064;4.580;2023-08-07T07:17:18;14.70;99.90
75262;DHT22;63859;51.064;4.580;2023-08-07T07:19:44;14.80;99.90
75262;DHT22;63859;51.064;4.580;2023-08-07T07:22:09;14.90;99.90
75262;DHT22;63859;51.064;4.580;2023-08-07T07:24:35;14.90;99.90
75262;DHT22;63859;51.064;4.580;2023-08-07T07:27:01;14.90;99.90
75262;DHT22;63859;51.064;4.580;2023-08-07T07:29:26;15.00;99.90
75262;DHT22;63859;51.064;4.580;2023-08-07T07:31:52;15.00;99.90
75262;DHT22;63859;51.064;4.580;2023-08-07T07:34:20;15.00;99.90
75262;DHT22;63859;51.064;4.580;2023-08-07T07:36:46;15.10;99.90
75262;DHT22;63859;51.064;4.580;2023-08-07T07:39:12;15.10;99.90
75262;DHT22;63859;51.064;4.580;2023-08-07T07:41:37;15.20;99.90
75262;DHT22;63859;51.064;4.580;2023-08-07T07:44:03;15.30;99.90
75262;DHT22;63859;51.064;4.580;2023-08-07T07:46:29;15.30;99.90
75262;DHT22;63859;51.064;4.580;2023-08-07T07:48:55;15.40;99.90
75262;DHT22;63859;51.064;4.580;2023-08-07T07:51:22;15.50;99.90
75262;DHT22;63859;51.064;4.580;2023-08-07T07:53:47;15.50;99.90
75262;DHT22;63859;51.064;4.580;2023-08-07T07:56:13;15.60;99.90
75262;DHT22;63859;51.064;4.580;2023-08-07T07:58:39;15.70;99.90
75262;DHT22;63859;51.064;4.580;2023-08-07T08:01:06;15.80;99.90
75262;DHT22;63859;51.064;4.580;2023-08-07T08:03:32;15.90;99.90
75262;DHT22;63859;51.064;4.580;2023-08-07T08:05:58;16.00;99.90
75262;DHT22;63859;51.064;4.580;2023-08-07T08:08:24;16.00;99.90
75262;DHT22;63859;51.064;4.580;2023-08-07T08:10:50;16.10;99.90
75262;DHT22;63859;51.064;4.580;2023-08-07T08:13:16;16.10;99.90
75262;DHT22;63859;51.064;4.580;2023-08-07T08:15:43;16.10;99.90
75262;DHT22;63859;51.064;4.580;2023-08-07T08:18:09;16.00;99.90
75262;DHT22;63859;51.064;4.580;2023-08-07T08:20:34;16.00;99.90
75262;DHT22;63859;51.064;4.580;2023-08-07T08:23:00;16.00;99.90
75262;DHT22;63859;51.064;4.580;2023-08-07T08:25:26;16.10;99.90
75262;DHT22;63859;51.064;4.580;2023-08-07T08:27:52;16.20;99.90
75262;DHT22;63859;51.064;4.580;2023-08-07T08:30:17;16.40;99.90
75262;DHT22;63859;51.064;4.580;2023-08-07T08:32:43;16.50;99.90
75262;DHT22;63859;51.064;4.580;2023-08-07T08:35:09;16.40;99.90
75262;DHT22;63859;51.064;4.580;2023-08-07T08:37:35;16.20;99.90
75262;DHT22;63859;51.064;4.580;2023-08-07T08:40:01;16.30;99.90
75262;DHT22;63859;51.064;4.580;2023-08-07T08:42:27;16.40;99.90
75262;DHT22;63859;51.064;4.580;2023-08-07T08:44:55;16.50;99.90
75262;DHT22;63859;51.064;4.580;2023-08-07T08:47:21;16.70;99.90
75262;DHT22;63859;51.064;4.580;2023-08-07T08:49:50;16.80;99.90
75262;DHT22;63859;51.064;4.580;2023-08-07T08:52:17;17.00;99.90
75262;DHT22;63859;51.064;4.580;2023-08-07T08:54:44;17.10;99.90
75262;DHT22;63859;51.064;4.580;2023-08-07T08:57:11;17.30;99.90
75262;DHT22;63859;51.064;4.580;2023-08-07T08:59:37;17.40;99.90
75262;DHT22;63859;51.064;4.580;2023-08-07T09:02:04;17.40;99.90
75262;DHT22;63859;51.064;4.580;2023-08-07T09:04:29;17.20;99.90
75262;DHT22;63859;51.064;4.580;2023-08-07T09:06:55;17.20;99.90
75262;DHT22;63859;51.064;4.580;2023-08-07T09:09:21;17.20;99.90
75262;DHT22;63859;51.064;4.580;2023-08-07T09:11:48;17.30;99.90
75262;DHT22;63859;51.064;4.580;2023-08-07T09:14:18;17.50;99.90
75262;DHT22;63859;51.064;4.580;2023-08-07T09:16:48;17.80;99.90
75262;DHT22;63859;51.064;4.580;2023-08-07T09:19:14;17.90;99.90
75262;DHT22;63859;51.064;4.580;2023-08-07T09:21:39;17.70;99.90
75262;DHT22;63859;51.064;4.580;2023-08-07T09:24:05;17.60;99.90
75262;DHT22;63859;51.064;4.580;2023-08-07T09:26:32;17.80;99.90
75262;DHT22;63859;51.064;4.580;2023-08-07T09:29:02;17.90;99.90
75262;DHT22;63859;51.064;4.580;2023-08-07T09:31:28;18.00;99.90
75262;DHT22;63859;51.064;4.580;2023-08-07T09:34:01;17.90;99.90
75262;DHT22;63859;51.064;4.580;2023-08-07T09:36:33;17.90;99.90
75262;DHT22;63859;51.064;4.580;2023-08-07T09:39:02;17.90;99.90
75262;DHT22;63859;51.064;4.580;2023-08-07T09:41:29;18.20;99.90
75262;DHT22;63859;51.064;4.580;2023-08-07T09:43:58;18.10;99.90
75262;DHT22;63859;51.064;4.580;2023-08-07T09:46:32;18.10;99.90
75262;DHT22;63859;51.064;4.580;2023-08-07T09:49:02;18.00;99.90
75262;DHT22;63859;51.064;4.580;2023-08-07T09:51:43;18.20;99.90
75262;DHT22;63859;51.064;4.580;2023-08-07T09:54:09;18.30;99.90
75262;DHT22;63859;51.064;4.580;2023-08-07T09:56:36;18.10;99.90
75262;DHT22;63859;51.064;4.580;2023-08-07T09:59:01;18.10;99.90
75262;DHT22;63859;51.064;4.580;2023-08-07T10:01:27;18.20;99.90
75262;DHT22;63859;51.064;4.580;2023-08-07T10:03:53;18.40;99.90
75262;DHT22;63859;51.064;4.580;2023-08-07T10:06:19;18.30;99.90
75262;DHT22;63859;51.064;4.580;2023-08-07T10:08:45;18.40;99.90
75262;DHT22;63859;51.064;4.580;2023-08-07T10:11:11;18.60;99.90
75262;DHT22;63859;51.064;4.580;2023-08-07T10:13:40;18.70;99.90
75262;DHT22;63859;51.064;4.580;2023-08-07T10:16:07;18.60;99.90
75262;DHT22;63859;51.064;4.580;2023-08-07T10:18:33;18.70;99.90
75262;DHT22;63859;51.064;4.580;2023-08-07T10:21:01;18.90;99.90
75262;DHT22;63859;51.064;4.580;2023-08-07T10:23:27;19.10;99.90
75262;DHT22;63859;51.064;4.580;2023-08-07T10:25:53;19.10;99.90
75262;DHT22;63859;51.064;4.580;2023-08-07T10:28:22;18.90;99.90
75262;DHT22;63859;51.064;4.580;2023-08-07T10:30:49;18.90;99.90
75262;DHT22;63859;51.064;4.580;2023-08-07T10:33:16;19.10;99.90
75262;DHT22;63859;51.064;4.580;2023-08-07T10:35:47;19.30;99.90
75262;DHT22;63859;51.064;4.580;2023-08-07T10:38:14;19.00;99.90
75262;DHT22;63859;51.064;4.580;2023-08-07T10:43:24;19.10;99.90
75262;DHT22;63859;51.064;4.580;2023-08-07T10:45:51;19.30;99.90
75262;DHT22;63859;51.064;4.580;2023-08-07T10:48:20;19.50;99.90
75262;DHT22;63859;51.064;4.580;2023-08-07T10:55:54;19.30;99.90
75262;DHT22;63859;51.064;4.580;2023-08-07T10:58:30;19.30;99.90
75262;DHT22;63859;51.064;4.580;2023-08-07T11:06:31;19.70;99.90
75262;DHT22;63859;51.064;4.580;2023-08-07T11:08:57;19.70;99.90
75262;DHT22;63859;51.064;4.580;2023-08-07T11:11:23;19.80;99.90
75262;DHT22;63859;51.064;4.580;2023-08-07T11:13:50;20.10;99.90
75262;DHT22;63859;51.064;4.580;2023-08-07T11:16:17;20.40;99.90
75262;DHT22;63859;51.064;4.580;2023-08-07T11:18:43;20.10;99.90
75262;DHT22;63859;51.064;4.580;2023-08-07T11:21:10;20.20;99.90
75262;DHT22;63859;51.064;4.580;2023-08-07T11:23:37;19.80;99.90
75262;DHT22;63859;51.064;4.580;2023-08-07T11:26:03;20.00;99.90
75262;DHT22;63859;51.064;4.580;2023-08-07T11:28:29;19.70;99.90
75262;DHT22;63859;51.064;4.580;2023-08-07T11:30:56;19.50;99.90
75262;DHT22;63859;51.064;4.580;2023-08-07T11:33:23;19.50;99.90
75262;DHT22;63859;51.064;4.580;2023-08-07T11:35:50;19.60;99.90
75262;DHT22;63859;51.064;4.580;2023-08-07T11:38:32;19.90;99.90
75262;DHT22;63859;51.064;4.580;2023-08-07T11:41:02;20.10;99.90
75262;DHT22;63859;51.064;4.580;2023-08-07T11:43:29;20.10;99.90
75262;DHT22;63859;51.064;4.580;2023-08-07T11:45:57;20.00;99.90
75262;DHT22;63859;51.064;4.580;2023-08-07T11:48:31;20.00;99.90
75262;DHT22;63859;51.064;4.580;2023-08-07T11:50:57;20.30;99.90
75262;DHT22;63859;51.064;4.580;2023-08-07T11:53:30;20.50;99.90
75262;DHT22;63859;51.064;4.580;2023-08-07T11:58:33;19.80;99.90
75262;DHT22;63859;51.064;4.580;2023-08-07T12:01:01;19.50;99.90
75262;DHT22;63859;51.064;4.580;2023-08-07T12:03:29;19.80;99.90
75262;DHT22;63859;51.064;4.580;2023-08-07T12:05:58;20.30;99.90
75262;DHT22;63859;51.064;4.580;2023-08-07T12:08:38;20.60;99.90
75262;DHT22;63859;51.064;4.580;2023-08-07T12:11:09;20.80;99.90
75262;DHT22;63859;51.064;4.580;2023-08-07T12:13:43;20.70;99.90
75262;DHT22;63859;51.064;4.580;2023-08-07T12:16:10;20.50;99.90
75262;DHT22;63859;51.064;4.580;2023-08-07T12:18:52;20.30;99.90
75262;DHT22;63859;51.064;4.580;2023-08-07T12:21:22;20.10;99.90
75262;DHT22;63859;51.064;4.580;2023-08-07T12:23:50;19.70;99.90
75262;DHT22;63859;51.064;4.580;2023-08-07T12:26:17;19.60;99.90
75262;DHT22;63859;51.064;4.580;2023-08-07T12:28:43;19.90;99.90
75262;DHT22;63859;51.064;4.580;2023-08-07T12:31:09;20.20;99.90
75262;DHT22;63859;51.064;4.580;2023-08-07T12:33:35;20.40;99.90
75262;DHT22;63859;51.064;4.580;2023-08-07T12:36:01;20.20;99.90
75262;DHT22;63859;51.064;4.580;2023-08-07T12:38:28;20.40;99.90
75262;DHT22;63859;51.064;4.580;2023-08-07T12:40:54;20.30;99.90
75262;DHT22;63859;51.064;4.580;2023-08-07T12:43:20;20.20;99.90
75262;DHT22;63859;51.064;4.580;2023-08-07T12:45:46;20.50;99.90
75262;DHT22;63859;51.064;4.580;2023-08-07T12:48:12;20.60;99.90
75262;DHT22;63859;51.064;4.580;2023-08-07T12:50:38;21.00;99.90
75262;DHT22;63859;51.064;4.580;2023-08-07T12:53:04;21.00;99.90
75262;DHT22;63859;51.064;4.580;2023-08-07T12:55:30;21.20;99.90
75262;DHT22;63859;51.064;4.580;2023-08-07T12:57:56;21.50;99.90
75262;DHT22;63859;51.064;4.580;2023-08-07T13:00:22;21.40;99.90
75262;DHT22;63859;51.064;4.580;2023-08-07T13:02:50;21.10;99.90
75262;DHT22;63859;51.064;4.580;2023-08-07T13:05:17;21.40;99.90
75262;DHT22;63859;51.064;4.580;2023-08-07T13:07:44;21.70;99.90
75262;DHT22;63859;51.064;4.580;2023-08-07T13:10:11;21.60;99.90
75262;DHT22;63859;51.064;4.580;2023-08-07T13:12:39;21.40;99.90
75262;DHT22;63859;51.064;4.580;2023-08-07T13:15:07;21.10;99.90
75262;DHT22;63859;51.064;4.580;2023-08-07T13:17:37;20.80;99.90
75262;DHT22;63859;51.064;4.580;2023-08-07T13:20:04;20.70;99.90
75262;DHT22;63859;51.064;4.580;2023-08-07T13:22:43;20.60;99.90
75262;DHT22;63859;51.064;4.580;2023-08-07T13:25:10;20.40;99.90
75262;DHT22;63859;51.064;4.580;2023-08-07T13:27:38;20.40;99.90
75262;DHT22;63859;51.064;4.580;2023-08-07T13:30:05;20.60;99.90
75262;DHT22;63859;51.064;4.580;2023-08-07T13:32:31;21.10;99.90
75262;DHT22;63859;51.064;4.580;2023-08-07T13:34:57;21.40;99.90
75262;DHT22;63859;51.064;4.580;2023-08-07T13:37:23;21.50;99.90
75262;DHT22;63859;51.064;4.580;2023-08-07T13:39:49;21.80;99.90
75262;DHT22;63859;51.064;4.580;2023-08-07T13:42:17;21.70;99.90
75262;DHT22;63859;51.064;4.580;2023-08-07T13:44:43;21.90;99.90
75262;DHT22;63859;51.064;4.580;2023-08-07T13:47:10;21.70;99.90
75262;DHT22;63859;51.064;4.580;2023-08-07T13:49:36;21.30;99.90
75262;DHT22;63859;51.064;4.580;2023-08-07T13:52:02;21.50;99.90
75262;DHT22;63859;51.064;4.580;2023-08-07T13:54:28;22.00;99.90
75262;DHT22;63859;51.064;4.580;2023-08-07T13:56:54;22.20;99.90
75262;DHT22;63859;51.064;4.580;2023-08-07T13:59:20;21.90;99.90
75262;DHT22;63859;51.064;4.580;2023-08-07T14:01:45;21.80;99.90
75262;DHT22;63859;51.064;4.580;2023-08-07T14:04:11;22.10;99.90
75262;DHT22;63859;51.064;4.580;2023-08-07T14:06:39;21.90;99.90
75262;DHT22;63859;51.064;4.580;2023-08-07T14:09:06;21.50;99.90
75262;DHT22;63859;51.064;4.580;2023-08-07T14:11:32;21.80;99.90
75262;DHT22;63859;51.064;4.580;2023-08-07T14:13:57;22.30;99.90
75262;DHT22;63859;51.064;4.580;2023-08-07T14:16:24;22.40;99.90
75262;DHT22;63859;51.064;4.580;2023-08-07T14:18:50;22.60;99.90
75262;DHT22;63859;51.064;4.580;2023-08-07T14:21:16;22.30;99.90
75262;DHT22;63859;51.064;4.580;2023-08-07T14:23:42;21.80;99.90
75262;DHT22;63859;51.064;4.580;2023-08-07T14:26:14;21.40;99.90
75262;DHT22;63859;51.064;4.580;2023-08-07T14:28:40;21.60;99.90
75262;DHT22;63859;51.064;4.580;2023-08-07T14:31:07;21.50;99.90
75262;DHT22;63859;51.064;4.580;2023-08-07T14:33:33;21.60;99.90
75262;DHT22;63859;51.064;4.580;2023-08-07T14:35:59;21.50;99.90
75262;DHT22;63859;51.064;4.580;2023-08-07T14:38:26;21.90;99.90
75262;DHT22;63859;51.064;4.580;2023-08-07T14:40:51;22.30;99.90
75262;DHT22;63859;51.064;4.580;2023-08-07T14:43:17;22.60;99.90
75262;DHT22;63859;51.064;4.580;2023-08-07T14:45:43;22.90;99.90
75262;DHT22;63859;51.064;4.580;2023-08-07T14:48:09;22.60;99.90
75262;DHT22;63859;51.064;4.580;2023-08-07T14:50:34;22.20;99.90
75262;DHT22;63859;51.064;4.580;2023-08-07T14:53:00;21.70;99.90
75262;DHT22;63859;51.064;4.580;2023-08-07T14:55:26;21.70;99.90
75262;DHT22;63859;51.064;4.580;2023-08-07T14:57:51;21.40;99.90
75262;DHT22;63859;51.064;4.580;2023-08-07T15:00:17;21.70;99.90
75262;DHT22;63859;51.064;4.580;2023-08-07T15:02:43;21.60;99.90
75262;DHT22;63859;51.064;4.580;2023-08-07T15:05:09;21.30;99.90
75262;DHT22;63859;51.064;4.580;2023-08-07T15:07:35;21.50;99.90
75262;DHT22;63859;51.064;4.580;2023-08-07T15:10:00;22.20;99.90
75262;DHT22;63859;51.064;4.580;2023-08-07T15:12:26;22.50;99.90
75262;DHT22;63859;51.064;4.580;2023-08-07T15:14:51;22.50;99.90
75262;DHT22;63859;51.064;4.580;2023-08-07T15:17:17;22.40;99.90
75262;DHT22;63859;51.064;4.580;2023-08-07T15:19:43;21.70;99.90
75262;DHT22;63859;51.064;4.580;2023-08-07T15:22:08;21.50;99.90
75262;DHT22;63859;51.064;4.580;2023-08-07T15:24:34;21.90;99.90
75262;DHT22;63859;51.064;4.580;2023-08-07T15:27:00;22.60;99.90
75262;DHT22;63859;51.064;4.580;2023-08-07T15:29:26;23.20;99.90
75262;DHT22;63859;51.064;4.580;2023-08-07T15:31:51;23.00;99.90
75262;DHT22;63859;51.064;4.580;2023-08-07T15:34:17;22.70;99.90
75262;DHT22;63859;51.064;4.580;2023-08-07T15:36:43;22.30;99.90
75262;DHT22;63859;51.064;4.580;2023-08-07T15:39:09;22.10;99.90
75262;DHT22;63859;51.064;4.580;2023-08-07T15:41:34;22.10;99.90
75262;DHT22;63859;51.064;4.580;2023-08-07T15:44:01;22.30;99.90